ENNOENSD

Guest
Details From ENNO - Notodden
To ENSD - Sandane
Flight Number -
Tags generated
Created
Modified
Stats Distance 164 nm / 303 km
Max Altitude 14,200 ft / 4,328 m
Waypoints 3
Social Downloads 0
Likes 0
Share VATSIM

Download

Looking for another format? Having issues loading an existing format? Contact us
Advertisement - Login to hide

Notes

Basic altitude profile: - Ascent Rate: 2500ft/min - Ascent Speed: 250kts - Cruise Altitude: 22000ft - Cruise Speed: 420kts - Descent Rate: 1500ft/min - Descent Speed: 250kts Options: - Use NATs: yes - Use PACOTS: yes - Use low airways: yes - Use high airways: yes

Route

ENNO SOPEN ENSD

ID Type Via Altitude Latitude Longitude Leg Dist Tot Dist Heading (true) Name
O ENNO APT - 0 ft / 0 m 59.56568˚ 9.21189˚ - 0 nm - Notodden
SOPEN FIX - 14,200 ft / 4,328 m 60.84778˚ 7.50000˚ 92 nm 92 nm 327° / 326° -
O ENSD APT - 0 ft / 0 m 61.83027˚ 6.10949˚ 71 nm 163 nm 326° / 325° Sandane

Altitude Profile

Advertisement - Login to hide

Weather


0- 5 10 15 20 25 30 35+ Temperature / ° C

Clouds and Precipitation
Forecast for 2017-12-12 00:00 UTC. Updated 18 minutes ago

Ground ~20,000 ft ~40,000 ft Winds

ENNO

Details ICAO ENNO (NTB)
Name Notodden
Region Norway
Timezone Europe/Oslo (UTC+1.0)
Stats Elevation 63 ft / 19 m (AMSL)
Location 59.565683° 9.211891°
Runways 1
Magnetic Variation 2.572° E

METAR

ENNO 111750Z VRB02KT 9999 OVC027 M04/M06 Q0997

Decode

TAF

Not found

Departure Runways

ID Width Length Bearing (true) Bearing (mag) Surface Threshold Offset Overrun Length
12 131 ft / 40 m 4,558 ft / 1,389 m 127.08° 124.51° Asphalt 2,050 ft / 625 m 0 ft / 0 m
30 131 ft / 40 m 4,558 ft / 1,389 m 307.10° 304.53° Asphalt 0 ft / 0 m 0 ft / 0 m

ENSD

Details ICAO ENSD (SDN)
Name Sandane
Region Norway
Timezone Europe/Oslo (UTC+1.0)
Stats Elevation 177 ft / 54 m (AMSL)
Location 61.830269° 6.109493°
Runways 1
Magnetic Variation 1.181° E

METAR

ENSD 111920Z 15004KT 100V170 9999 SCT010 BKN036 M00/M01 Q0996 RMK WIND 1138FT 08005KT

Decode

TAF

Not found

Destination Runways

ID Width Length Bearing (true) Bearing (mag) Surface Threshold Offset Overrun Length
08 98 ft / 30 m 2,759 ft / 841 m 84.29° 83.11° Asphalt 0 ft / 0 m 0 ft / 0 m
26 98 ft / 30 m 2,759 ft / 841 m 264.31° 263.13° Asphalt 0 ft / 0 m 0 ft / 0 m